createdAt,value
2023-04-29T00:01:21.181Z,16.52
2023-04-29T00:03:48.338Z,15.57
2023-04-29T00:06:16.015Z,16.17
2023-04-29T00:08:43.005Z,16.13
2023-04-29T00:11:11.017Z,16.88
2023-04-29T00:13:40.892Z,19.58
2023-04-29T00:16:10.437Z,16.30
2023-04-29T00:18:37.974Z,17.88
2023-04-29T00:21:08.009Z,17.42
2023-04-29T00:23:35.091Z,18.35
2023-04-29T00:26:02.202Z,19.38
2023-04-29T00:28:29.262Z,16.98
2023-04-29T00:30:56.443Z,20.92
2023-04-29T00:33:23.583Z,16.92
2023-04-29T00:35:51.051Z,18.02
2023-04-29T00:38:17.956Z,20.88
2023-04-29T00:40:45.471Z,16.58
2023-04-29T00:43:13.070Z,18.17
2023-04-29T00:45:40.445Z,20.40
2023-04-29T00:48:07.910Z,18.15
2023-04-29T00:50:36.612Z,20.25
2023-04-29T00:53:04.122Z,19.48
2023-04-29T00:55:33.283Z,18.42
2023-04-29T00:58:00.712Z,20.50
2023-04-29T01:00:28.533Z,20.80
2023-04-29T01:02:57.115Z,21.88
2023-04-29T01:05:24.574Z,16.33
2023-04-29T01:08:27.142Z,17.17
2023-04-29T01:11:08.003Z,17.92
2023-04-29T01:13:50.724Z,21.45
2023-04-29T01:16:44.577Z,19.58
2023-04-29T01:19:44.157Z,19.08
2023-04-29T01:22:11.604Z,19.08
2023-04-29T01:24:39.859Z,15.70
2023-04-29T01:27:36.701Z,15.70
2023-04-29T01:30:12.813Z,14.45
2023-04-29T01:33:16.016Z,13.00
2023-04-29T01:36:19.743Z,14.60
2023-04-29T01:39:14.639Z,14.48
2023-04-29T01:41:57.440Z,13.25
2023-04-29T01:44:28.986Z,13.80
2023-04-29T01:46:56.953Z,12.40
2023-04-29T01:49:30.241Z,12.45
2023-04-29T01:51:57.113Z,13.35
2023-04-29T01:54:24.188Z,11.30
2023-04-29T01:56:52.359Z,11.77
2023-04-29T01:59:19.293Z,11.90
2023-04-29T02:01:46.165Z,10.50
2023-04-29T02:04:13.278Z,10.82
2023-04-29T02:06:40.136Z,10.88
2023-04-29T02:09:07.072Z,9.38
2023-04-29T02:11:33.985Z,10.13
2023-04-29T02:14:00.828Z,10.88
2023-04-29T02:16:27.851Z,9.45
2023-04-29T02:18:54.736Z,9.60
2023-04-29T02:21:21.640Z,8.52
2023-04-29T02:23:48.574Z,10.15
2023-04-29T02:26:15.652Z,9.27
2023-04-29T02:28:42.842Z,12.48
2023-04-29T02:31:09.681Z,11.10
2023-04-29T02:33:36.584Z,12.02
2023-04-29T02:36:03.834Z,12.77
2023-04-29T02:38:30.916Z,14.75
2023-04-29T02:40:58.177Z,13.10
2023-04-29T02:43:25.156Z,14.82
2023-04-29T02:45:52.416Z,13.82
2023-04-29T02:48:19.364Z,14.73
2023-04-29T02:50:46.684Z,12.27
2023-04-29T02:53:13.785Z,13.55
2023-04-29T02:55:40.754Z,11.82
2023-04-29T02:58:08.135Z,14.15
2023-04-29T03:00:35.161Z,15.10
2023-04-29T03:03:02.207Z,14.43
2023-04-29T03:05:29.130Z,12.05
2023-04-29T03:07:56.212Z,12.90
2023-04-29T03:10:23.213Z,13.45
2023-04-29T03:12:50.150Z,12.73
2023-04-29T03:15:17.397Z,12.73
2023-04-29T03:17:46.392Z,12.85
2023-04-29T03:20:13.707Z,15.65
2023-04-29T03:22:40.595Z,14.90
2023-04-29T03:25:08.192Z,19.75
2023-04-29T03:27:35.193Z,17.83
2023-04-29T03:30:04.057Z,20.90
2023-04-29T03:32:31.011Z,23.17
2023-04-29T03:34:57.966Z,24.33
2023-04-29T03:37:24.828Z,24.02
2023-04-29T03:39:51.913Z,25.15
2023-04-29T03:42:18.900Z,21.50
2023-04-29T03:44:45.781Z,22.77
2023-04-29T03:47:13.913Z,25.33
2023-04-29T03:49:41.205Z,28.85
2023-04-29T03:52:08.129Z,27.50
2023-04-29T03:54:35.160Z,26.63
2023-04-29T03:57:03.649Z,32.58
2023-04-29T03:59:30.701Z,26.83
2023-04-29T04:01:58.551Z,29.42
2023-04-29T04:04:26.361Z,30.98
2023-04-29T04:06:53.424Z,31.73
2023-04-29T04:09:20.518Z,30.45
2023-04-29T04:11:47.476Z,35.38
2023-04-29T04:14:14.408Z,38.47
2023-04-29T04:16:41.432Z,31.13
2023-04-29T04:19:08.998Z,36.30
2023-04-29T04:21:35.933Z,28.80
2023-04-29T04:24:03.144Z,32.75
2023-04-29T04:26:30.021Z,34.00
2023-04-29T04:28:56.950Z,32.22
2023-04-29T04:31:23.921Z,31.25
2023-04-29T04:33:51.091Z,32.55
2023-04-29T04:36:17.987Z,37.15
2023-04-29T04:38:44.767Z,36.03
2023-04-29T04:41:11.745Z,36.08
2023-04-29T04:43:39.823Z,39.08
2023-04-29T04:46:15.166Z,37.22
2023-04-29T04:48:42.641Z,38.53
2023-04-29T04:51:11.396Z,38.58
2023-04-29T04:53:39.906Z,39.53
2023-04-29T04:56:07.557Z,38.85
2023-04-29T04:58:34.697Z,44.13
2023-04-29T05:01:01.569Z,35.80
2023-04-29T05:03:28.729Z,39.60
2023-04-29T05:05:56.893Z,38.67
2023-04-29T05:08:24.672Z,35.90
2023-04-29T05:10:52.026Z,39.28
2023-04-29T05:13:19.561Z,35.47
2023-04-29T05:15:46.692Z,34.97
2023-04-29T05:18:13.724Z,37.47
2023-04-29T05:20:40.554Z,36.03
2023-04-29T05:23:07.522Z,36.47
2023-04-29T05:25:35.880Z,34.83
2023-04-29T05:28:04.630Z,33.47
2023-04-29T05:30:31.487Z,32.55
2023-04-29T05:32:58.865Z,28.50
2023-04-29T05:35:26.448Z,23.73
2023-04-29T05:37:53.294Z,26.25
2023-04-29T05:40:20.344Z,24.85
2023-04-29T05:42:47.513Z,24.27
2023-04-29T05:45:14.499Z,21.45
2023-04-29T05:47:41.457Z,18.90
2023-04-29T05:50:08.656Z,18.40
2023-04-29T05:52:35.507Z,22.10
2023-04-29T05:55:02.422Z,17.60
2023-04-29T05:57:29.323Z,12.77
2023-04-29T05:59:56.358Z,11.60
2023-04-29T06:02:23.481Z,11.98
2023-04-29T06:04:50.702Z,10.88
2023-04-29T06:07:20.212Z,11.48
2023-04-29T06:09:47.350Z,12.27
2023-04-29T06:12:14.299Z,12.60
2023-04-29T06:14:41.246Z,11.98
2023-04-29T06:17:08.416Z,11.00
2023-04-29T06:19:35.405Z,8.05
2023-04-29T06:22:02.264Z,9.23
2023-04-29T06:24:29.089Z,8.77
2023-04-29T06:26:56.001Z,8.93
2023-04-29T06:29:22.872Z,9.05
2023-04-29T06:31:49.726Z,8.73
2023-04-29T06:34:16.564Z,9.40
2023-04-29T06:36:43.809Z,12.60
2023-04-29T06:39:10.925Z,8.88
2023-04-29T06:41:37.943Z,9.32
2023-04-29T06:44:04.953Z,9.68
2023-04-29T06:46:31.981Z,10.95
2023-04-29T06:48:58.891Z,12.52
2023-04-29T06:51:25.732Z,8.95
2023-04-29T06:53:52.641Z,10.02
2023-04-29T06:56:19.502Z,11.68
2023-04-29T06:58:46.438Z,11.10
2023-04-29T07:01:13.315Z,13.13
2023-04-29T07:03:40.439Z,10.23
2023-04-29T07:06:07.642Z,9.93
2023-04-29T07:08:34.648Z,10.07
2023-04-29T07:11:01.591Z,10.25
2023-04-29T07:13:28.710Z,10.90
2023-04-29T07:15:55.795Z,10.52
2023-04-29T07:18:23.170Z,9.55
2023-04-29T07:20:52.027Z,10.65
2023-04-29T07:23:18.880Z,10.45
2023-04-29T07:25:45.819Z,9.70
2023-04-29T07:28:12.691Z,10.35
2023-04-29T07:30:39.708Z,7.68
2023-04-29T07:33:06.811Z,9.48
2023-04-29T07:35:34.211Z,9.85
2023-04-29T07:38:01.167Z,9.48
2023-04-29T07:40:28.722Z,8.07
2023-04-29T07:42:55.673Z,9.00
2023-04-29T07:45:22.831Z,9.60
2023-04-29T07:47:49.683Z,8.98
2023-04-29T07:50:16.613Z,9.50
2023-04-29T07:52:50.068Z,9.55
2023-04-29T07:55:17.408Z,8.82
2023-04-29T07:57:44.334Z,9.75
2023-04-29T08:00:12.225Z,10.00
2023-04-29T08:02:39.414Z,10.70
2023-04-29T08:05:07.135Z,11.43
2023-04-29T08:07:35.301Z,12.15
2023-04-29T08:10:02.245Z,15.27
2023-04-29T08:12:29.197Z,12.32
2023-04-29T08:14:56.004Z,17.33
2023-04-29T08:17:22.918Z,18.60
2023-04-29T08:19:49.836Z,24.77
2023-04-29T08:22:17.670Z,24.58
2023-04-29T08:24:45.214Z,23.15
2023-04-29T08:27:12.135Z,24.13
2023-04-29T08:29:39.539Z,23.42
2023-04-29T08:32:06.752Z,23.38
2023-04-29T08:34:36.146Z,22.05
2023-04-29T08:37:03.676Z,28.88
2023-04-29T08:39:31.698Z,26.48
2023-04-29T08:41:59.883Z,24.52
2023-04-29T08:44:27.600Z,30.08
2023-04-29T08:46:55.992Z,33.08
2023-04-29T08:49:23.140Z,28.25
2023-04-29T08:51:53.157Z,29.70
2023-04-29T08:54:20.045Z,24.20
2023-04-29T08:56:48.479Z,26.13
2023-04-29T08:59:18.101Z,29.25
2023-04-29T09:01:51.956Z,28.95
2023-04-29T09:04:56.143Z,27.98
2023-04-29T09:07:24.020Z,32.47
2023-04-29T09:09:56.532Z,32.45
2023-04-29T09:12:23.377Z,30.25
2023-04-29T09:14:50.540Z,24.83
2023-04-29T09:17:18.859Z,24.90
2023-04-29T09:19:45.909Z,28.05
2023-04-29T09:22:12.820Z,26.73
2023-04-29T09:24:40.009Z,27.73
2023-04-29T09:27:06.995Z,28.58
2023-04-29T09:29:36.493Z,26.13
2023-04-29T09:32:20.707Z,24.00
2023-04-29T09:34:47.577Z,22.85
2023-04-29T09:37:27.564Z,23.45
2023-04-29T09:39:54.833Z,20.15
2023-04-29T09:42:21.651Z,20.50
2023-04-29T09:44:48.571Z,20.17
2023-04-29T09:47:15.575Z,24.92
2023-04-29T09:49:46.054Z,25.17
2023-04-29T09:52:17.852Z,22.80
2023-04-29T09:54:45.506Z,24.50
2023-04-29T09:57:16.592Z,20.33
2023-04-29T09:59:44.036Z,22.73
2023-04-29T10:02:18.699Z,20.23
2023-04-29T10:04:48.676Z,21.73
2023-04-29T10:07:17.786Z,19.83
2023-04-29T10:09:47.563Z,18.25
2023-04-29T10:12:20.636Z,19.60
2023-04-29T10:15:34.456Z,20.92
2023-04-29T10:18:26.299Z,18.65
2023-04-29T10:20:57.350Z,18.08
2023-04-29T10:23:26.402Z,16.15
2023-04-29T10:25:57.526Z,21.63
2023-04-29T10:28:26.191Z,13.70
2023-04-29T10:30:56.090Z,12.98
2023-04-29T10:33:23.767Z,14.98
2023-04-29T10:35:54.036Z,14.63
2023-04-29T10:38:33.037Z,9.75
2023-04-29T10:41:08.658Z,11.52
2023-04-29T10:43:35.919Z,11.98
2023-04-29T10:46:23.793Z,9.20
2023-04-29T10:48:56.404Z,10.30
2023-04-29T10:51:34.221Z,9.63
2023-04-29T10:54:01.946Z,10.80
2023-04-29T10:56:40.006Z,11.80
2023-04-29T10:59:12.692Z,8.85
2023-04-29T11:01:53.575Z,8.32
2023-04-29T11:04:23.475Z,8.65
2023-04-29T11:06:59.141Z,9.13
2023-04-29T11:09:28.884Z,11.00
2023-04-29T11:11:55.648Z,11.38
2023-04-29T11:14:38.905Z,13.50
2023-04-29T11:17:10.797Z,12.55
2023-04-29T11:19:45.582Z,12.68
2023-04-29T11:22:23.331Z,12.73
2023-04-29T11:24:58.692Z,13.32
2023-04-29T11:27:31.448Z,12.93
2023-04-29T11:30:00.238Z,12.63
2023-04-29T11:32:37.161Z,14.05
2023-04-29T11:35:19.788Z,15.75
2023-04-29T11:37:47.496Z,15.85
2023-04-29T11:40:15.644Z,17.45
2023-04-29T11:42:49.763Z,15.98
2023-04-29T11:45:20.676Z,19.38
2023-04-29T11:47:49.332Z,18.10
2023-04-29T11:50:20.779Z,18.10
2023-04-29T11:52:50.405Z,18.42
2023-04-29T11:55:19.440Z,19.00
2023-04-29T11:57:51.040Z,16.05
2023-04-29T12:00:18.240Z,19.10
2023-04-29T12:02:47.201Z,18.60
2023-04-29T12:05:15.878Z,19.10
2023-04-29T12:07:43.806Z,23.17
2023-04-29T12:10:12.445Z,21.30
2023-04-29T12:12:46.687Z,20.80
2023-04-29T12:15:14.666Z,20.08
2023-04-29T12:17:42.938Z,21.17
2023-04-29T12:20:11.309Z,18.42
2023-04-29T12:22:38.799Z,17.95
2023-04-29T12:25:07.937Z,23.50
2023-04-29T12:27:37.076Z,21.75
2023-04-29T12:30:09.703Z,20.25
2023-04-29T12:32:38.218Z,21.70
2023-04-29T12:35:05.771Z,19.00
2023-04-29T12:37:33.954Z,21.35
2023-04-29T12:40:00.837Z,17.67
2023-04-29T12:42:34.264Z,19.77
2023-04-29T12:45:01.277Z,16.90
2023-04-29T12:47:37.248Z,17.52
2023-04-29T12:50:06.952Z,16.10
2023-04-29T12:52:35.957Z,16.55
2023-04-29T12:55:04.674Z,18.13
2023-04-29T12:57:31.742Z,16.63
2023-04-29T12:59:58.612Z,17.13
2023-04-29T13:02:26.404Z,15.95
2023-04-29T13:04:53.796Z,16.25
2023-04-29T13:07:21.081Z,14.93
2023-04-29T13:09:47.972Z,16.30
2023-04-29T13:12:14.875Z,19.75
2023-04-29T13:14:41.788Z,16.17
2023-04-29T13:17:08.798Z,21.75
2023-04-29T13:19:50.402Z,19.15
2023-04-29T13:22:18.841Z,21.23
2023-04-29T13:24:46.614Z,23.10
2023-04-29T13:27:13.498Z,22.95
2023-04-29T13:29:40.454Z,23.65
2023-04-29T13:32:08.381Z,27.15
2023-04-29T13:34:35.937Z,23.48
2023-04-29T13:37:02.933Z,24.58
2023-04-29T13:39:29.824Z,26.10
2023-04-29T13:41:59.260Z,25.77
2023-04-29T13:44:34.174Z,24.85
2023-04-29T13:47:13.633Z,22.10
2023-04-29T13:50:19.662Z,23.17
2023-04-29T13:55:49.444Z,23.85
2023-04-29T14:05:25.378Z,23.55
2023-04-29T14:07:52.534Z,24.85
2023-04-29T14:10:19.461Z,24.42
2023-04-29T14:12:46.404Z,23.55
2023-04-29T14:15:13.515Z,22.13
2023-04-29T14:17:40.670Z,22.85
2023-04-29T14:20:08.625Z,22.42
2023-04-29T14:22:36.075Z,23.67
2023-04-29T14:25:03.080Z,23.48
2023-04-29T14:27:29.965Z,24.15
2023-04-29T14:29:56.869Z,23.60
2023-04-29T14:32:23.772Z,22.13
2023-04-29T14:34:50.836Z,24.00
2023-04-29T14:37:17.810Z,26.15
2023-04-29T14:39:44.668Z,24.33
2023-04-29T14:42:12.937Z,20.17
2023-04-29T14:44:39.769Z,21.52
2023-04-29T14:47:06.588Z,23.27
2023-04-29T14:49:33.498Z,26.95
2023-04-29T14:52:00.407Z,22.50
2023-04-29T14:54:27.912Z,20.95
2023-04-29T14:56:54.770Z,23.38
2023-04-29T14:59:21.748Z,21.67
2023-04-29T15:01:48.825Z,18.60
2023-04-29T15:04:16.085Z,21.52
2023-04-29T15:06:43.152Z,21.08
2023-04-29T15:09:10.170Z,19.83
2023-04-29T15:11:37.087Z,22.25
2023-04-29T15:14:04.082Z,18.90
2023-04-29T15:16:31.680Z,19.83
2023-04-29T15:18:58.892Z,20.58
2023-04-29T15:21:26.827Z,21.20
2023-04-29T15:23:53.913Z,22.30
2023-04-29T15:26:21.775Z,23.33
2023-04-29T15:28:48.812Z,21.00
2023-04-29T15:31:15.777Z,21.60
2023-04-29T15:33:42.710Z,19.35
2023-04-29T15:36:09.658Z,20.08
2023-04-29T15:38:36.507Z,20.67
2023-04-29T15:41:03.984Z,20.88
2023-04-29T15:43:32.627Z,18.55
2023-04-29T15:45:59.980Z,20.85
2023-04-29T15:48:27.255Z,21.30
2023-04-29T15:50:54.127Z,23.60
2023-04-29T15:53:21.151Z,20.73
2023-04-29T15:55:48.010Z,20.65
2023-04-29T15:58:14.888Z,22.85
2023-04-29T16:00:41.808Z,21.20
2023-04-29T16:03:08.874Z,20.85
2023-04-29T16:05:37.029Z,25.55
2023-04-29T16:08:04.456Z,23.65
2023-04-29T16:10:31.426Z,26.33
2023-04-29T16:12:58.411Z,26.23
2023-04-29T16:15:25.367Z,24.30
2023-04-29T16:17:52.696Z,23.50
2023-04-29T16:20:20.676Z,23.20
2023-04-29T16:22:47.536Z,27.63
2023-04-29T16:25:14.516Z,25.50
2023-04-29T16:27:41.654Z,22.25
2023-04-29T16:30:09.248Z,25.23
2023-04-29T16:32:36.388Z,24.52
2023-04-29T16:35:03.354Z,24.35
2023-04-29T16:37:30.572Z,24.40
2023-04-29T16:39:58.124Z,24.17
2023-04-29T16:42:26.014Z,24.65
2023-04-29T16:44:52.919Z,25.75
2023-04-29T16:47:20.346Z,25.13
2023-04-29T16:49:47.381Z,24.60
2023-04-29T16:52:14.497Z,23.80
2023-04-29T16:54:41.612Z,22.50
2023-04-29T16:57:08.627Z,22.75
2023-04-29T16:59:35.758Z,21.95
2023-04-29T17:02:03.066Z,21.65
2023-04-29T17:04:31.601Z,26.67
2023-04-29T17:07:01.308Z,25.48
2023-04-29T17:09:28.737Z,26.65
2023-04-29T17:11:55.883Z,26.63
2023-04-29T17:14:22.956Z,25.27
2023-04-29T17:16:50.099Z,25.40
2023-04-29T17:19:17.934Z,22.95
2023-04-29T17:21:44.914Z,23.63
2023-04-29T17:24:11.858Z,29.38
2023-04-29T17:26:38.770Z,22.67
2023-04-29T17:29:05.660Z,23.55
2023-04-29T17:31:45.268Z,25.55
2023-04-29T17:34:19.119Z,24.02
2023-04-29T17:36:47.440Z,23.73
2023-04-29T17:39:14.540Z,25.23
2023-04-29T17:41:41.944Z,28.55
2023-04-29T17:44:09.385Z,28.20
2023-04-29T17:46:37.173Z,27.73
2023-04-29T17:49:04.926Z,26.83
2023-04-29T17:51:33.113Z,25.33
2023-04-29T17:54:01.182Z,27.05
2023-04-29T17:56:28.495Z,22.75
2023-04-29T17:58:55.408Z,24.98
2023-04-29T18:01:22.485Z,21.73
2023-04-29T18:03:51.319Z,21.25
2023-04-29T18:06:18.783Z,23.13
2023-04-29T18:08:46.427Z,22.92
2023-04-29T18:11:13.455Z,24.83
2023-04-29T18:13:41.447Z,24.42
2023-04-29T18:16:09.506Z,27.08
2023-04-29T18:18:37.401Z,27.90
2023-04-29T18:21:05.104Z,25.40
2023-04-29T18:23:32.195Z,28.52
2023-04-29T18:25:59.149Z,32.20
2023-04-29T18:28:26.195Z,24.50
2023-04-29T18:30:53.122Z,23.75
2023-04-29T18:33:20.236Z,23.55
2023-04-29T18:35:47.324Z,27.98
2023-04-29T18:38:17.176Z,23.80
2023-04-29T18:40:44.749Z,24.65
2023-04-29T18:43:15.288Z,24.38
2023-04-29T18:45:42.225Z,23.90
2023-04-29T18:48:09.887Z,23.77
2023-04-29T18:50:36.847Z,27.33
2023-04-29T18:53:03.816Z,34.05
2023-04-29T18:55:30.765Z,24.30
2023-04-29T18:57:57.647Z,26.60
2023-04-29T19:00:24.767Z,23.65
2023-04-29T19:02:51.739Z,27.85
2023-04-29T19:05:19.278Z,23.67
2023-04-29T19:07:46.165Z,22.95
2023-04-29T19:10:13.334Z,25.67
2023-04-29T19:12:40.378Z,27.38
2023-04-29T19:15:08.354Z,26.95
2023-04-29T19:17:36.102Z,25.55
2023-04-29T19:20:03.445Z,27.30
2023-04-29T19:22:31.406Z,27.00
2023-04-29T19:24:58.333Z,22.30
2023-04-29T19:27:25.381Z,22.25
2023-04-29T19:29:52.567Z,23.77
2023-04-29T19:32:22.454Z,28.23
2023-04-29T19:34:49.384Z,26.63
2023-04-29T19:37:16.416Z,25.48
2023-04-29T19:39:43.268Z,28.95
2023-04-29T19:42:10.837Z,27.40
2023-04-29T19:44:37.801Z,23.00
2023-04-29T19:47:04.778Z,28.00
2023-04-29T19:49:31.954Z,30.27
2023-04-29T19:51:58.829Z,27.52
2023-04-29T19:54:25.723Z,26.13
2023-04-29T19:56:52.792Z,33.83
2023-04-29T19:59:19.578Z,24.73
2023-04-29T20:01:47.012Z,30.13
2023-04-29T20:04:14.187Z,28.65
2023-04-29T20:06:41.416Z,28.05
2023-04-29T20:09:09.346Z,28.27
2023-04-29T20:11:36.657Z,29.30
2023-04-29T20:14:03.777Z,27.20
2023-04-29T20:16:32.152Z,25.58
2023-04-29T20:18:59.158Z,25.48
2023-04-29T20:21:26.233Z,23.98
2023-04-29T20:23:53.545Z,25.33
2023-04-29T20:26:20.482Z,25.23
2023-04-29T20:28:47.554Z,26.17
2023-04-29T20:31:14.507Z,26.83
2023-04-29T20:33:41.636Z,27.10
2023-04-29T20:36:08.527Z,28.15
2023-04-29T20:38:36.178Z,26.77
2023-04-29T20:41:05.838Z,25.80
2023-04-29T20:43:32.807Z,26.38
2023-04-29T20:46:00.555Z,25.67
2023-04-29T20:48:28.353Z,25.52
2023-04-29T20:50:55.508Z,24.90
2023-04-29T20:53:22.442Z,29.83
2023-04-29T20:55:49.388Z,27.27
2023-04-29T20:58:16.437Z,25.15
2023-04-29T21:00:43.493Z,30.80
2023-04-29T21:03:10.781Z,25.75
2023-04-29T21:05:37.712Z,28.10
2023-04-29T21:08:04.924Z,28.27
2023-04-29T21:10:31.996Z,27.67
2023-04-29T21:12:58.873Z,29.58
2023-04-29T21:15:26.957Z,28.33
2023-04-29T21:17:53.918Z,22.45
2023-04-29T21:20:21.399Z,24.05
2023-04-29T21:22:48.270Z,26.88
2023-04-29T21:25:15.162Z,27.05
2023-04-29T21:27:42.011Z,27.83
2023-04-29T21:30:09.570Z,26.77
2023-04-29T21:32:36.671Z,25.90
2023-04-29T21:35:03.719Z,26.70
2023-04-29T21:37:30.927Z,26.58
2023-04-29T21:40:00.262Z,26.15
2023-04-29T21:42:27.858Z,26.75
2023-04-29T21:44:58.541Z,27.10
2023-04-29T21:47:25.961Z,28.27
2023-04-29T21:49:54.176Z,30.05
2023-04-29T21:52:21.244Z,26.00
2023-04-29T21:54:48.139Z,33.25
2023-04-29T21:57:15.086Z,30.10
2023-04-29T21:59:41.894Z,33.88
2023-04-29T22:02:22.194Z,34.90
2023-04-29T22:04:51.361Z,32.60
2023-04-29T22:07:22.811Z,33.45
2023-04-29T22:09:49.733Z,32.58
2023-04-29T22:12:20.496Z,29.25
2023-04-29T22:14:47.651Z,28.33
2023-04-29T22:17:14.771Z,32.85
2023-04-29T22:19:41.620Z,34.55
2023-04-29T22:22:08.936Z,37.05
2023-04-29T22:24:35.836Z,33.95
2023-04-29T22:27:03.521Z,34.17
2023-04-29T22:29:30.331Z,38.65
2023-04-29T22:31:57.266Z,36.78
2023-04-29T22:34:24.139Z,35.13
2023-04-29T22:36:50.995Z,37.17
2023-04-29T22:39:17.938Z,40.93
2023-04-29T22:41:44.815Z,34.37
2023-04-29T22:44:11.865Z,31.47
2023-04-29T22:46:38.742Z,33.35
2023-04-29T22:49:05.579Z,38.10
2023-04-29T22:51:32.688Z,43.47
2023-04-29T22:53:59.559Z,35.63
2023-04-29T22:56:28.530Z,37.53
2023-04-29T22:58:55.967Z,54.67
2023-04-29T23:01:22.929Z,37.03
2023-04-29T23:03:49.883Z,39.10
2023-04-29T23:06:16.768Z,39.53
2023-04-29T23:08:44.612Z,36.57
2023-04-29T23:11:12.044Z,41.77
2023-04-29T23:13:39.427Z,39.23
2023-04-29T23:16:10.031Z,40.47
2023-04-29T23:18:37.727Z,38.03
2023-04-29T23:21:05.106Z,43.37
2023-04-29T23:23:31.919Z,42.17
2023-04-29T23:25:58.840Z,44.97
2023-04-29T23:28:25.917Z,46.97
2023-04-29T23:30:52.858Z,45.43
2023-04-29T23:33:19.786Z,38.33
2023-04-29T23:35:54.453Z,40.93
2023-04-29T23:38:21.421Z,44.43
2023-04-29T23:40:48.483Z,41.50
2023-04-29T23:43:15.446Z,43.27
2023-04-29T23:45:45.891Z,42.40
2023-04-29T23:48:13.199Z,45.07
2023-04-29T23:50:40.123Z,43.77
2023-04-29T23:53:07.048Z,40.17
2023-04-29T23:55:34.921Z,44.37
2023-04-29T23:58:01.864Z,110.63
